Aérodrome :
LOGIN :

S'inscrire | Disclaimer

   EN    FR    IT 

 










Légende :    VFR   VFR Marginal   IFR   IFR Intensif   IFR Très Intensif
Visi : 
Plafond : 
>= 8 km
>= 3000ft
5 à 8 km
1000 à 3000 ft
1500m à 5 km
500 à 1000 ft
800 à 1500m
200 à 500 ft
< 800m
< 200 ft
Symboles :   Orages  Brouillard  Fortes neiges  Fortes précipitations  Vent > 20 kt
SIGMETs :   Divers  Orages  Givrage  Turbulence  Onde Orograph.  Cendres Volcan.







- Altitude de l'aérodrome : 458 ft
- Voir les cartes d'approche


LFSI - St-Dizier

DERNIER METAR :
  • 270730Z AUTO 24006KT 210V270 9999 FEW006 OVC016 15/13 Q1013

METARs EXPIRÉS :
  • 270700Z AUTO 24004KT 210V270 3500 -RA BR BKN006 OVC016 14/13 Q1012
  • 270630Z AUTO 26007KT 2400 -RADZ BR BKN008 OVC013 14/13 Q1013
  • 270600Z AUTO 23007KT 9999 FEW007 OVC018 14/13 Q1012
  • 270530Z AUTO 23006KT 9999 FEW009 BKN018 BKN023 14/13 Q1012
  • 270500Z AUTO 22006KT 9999 -DZ BKN009 OVC017 14/13 Q1012

TAF TAF LFSI
Valide du 27 à 03h jusqu'au 28 à 03h UTC


270200Z 2703/2803 25005KT 9999 BKN030 BKN045
TEMPO 2706/2713 4000 SHRA BKN004 BKN010TCU BKN030
TEMPO 2713/2721 4000 SHRA BKN015TCU BKN050
BECMG 2721/2723 NSW BKN040
Pas de NOTAMs connus pour ce terrain.



MET'MAP, la Météo Aéronautique d'un coup d'oeil ! - Copyright ORBIFLY Décembre 2007 - Disclaimer

ORBIFLY MET'MAP TEAM :

Programmation & Développement : Alexandra Zaïnal
Conception & Développement : Baudouin d'Aumeries
Co-Programmation & Développement : Marc-Olivier Méhu
Soutien technique & logistique : Manuel Goepfert

Contact : metmap@orbifly.com




SOURCES & CREDITS :

   NOAA